Time;durP1;ratioP1;P1;durP2;ratioP2;P2;SDS_P1;SDS_P2;PMS_P1;PMS_P2;Temp;Humidity;BMP_temperature;BMP_pressure;BME280_temperature;BME280_humidity;BME280_pressure;Samples;Min_cycle;Max_cycle;Signal;HPM_P1;HPM_P2
2022/01/02 18:21:04;;;;;;;;;18.75;17.75;;;;;15.75;65.92;102899.00;5159834;27;45533;-93
2022/01/02 18:23:29;;;;;;;;;19.25;17.00;;;;;15.76;65.83;102865.94;5104762;27;45463;-87
2022/01/02 18:25:55;;;;;;;;;15.75;14.00;;;;;15.82;65.47;102849.56;5093810;27;45635;-86
2022/01/02 18:28:20;;;;;;;;;14.50;14.25;;;;;16.19;65.08;102883.25;5096448;27;45834;-88
2022/01/02 18:30:46;;;;;;;;;15.00;14.75;;;;;16.26;64.62;102875.75;5083769;27;46312;-89
2022/01/02 18:33:11;;;;;;;;;16.25;14.50;;;;;16.26;64.28;102860.50;5094096;27;45472;-86
2022/01/02 18:35:37;;;;;;;;;14.00;12.25;;;;;16.45;64.35;102867.50;5100740;27;45794;-86
2022/01/02 18:38:02;;;;;;;;;17.00;14.00;;;;;16.59;63.57;102868.47;5092957;27;45631;-88
2022/01/02 18:40:28;;;;;;;;;16.75;14.50;;;;;16.69;63.62;102858.94;5095025;27;45525;-88
2022/01/02 18:42:55;;;;;;;;;12.60;12.20;;;;;16.78;63.55;102860.19;5079962;27;46294;-88
2022/01/02 18:45:21;;;;;;;;;9.40;9.20;;;;;17.04;63.13;102897.97;5097864;27;45745;-88
2022/01/02 18:47:46;;;;;;;;;16.00;12.25;;;;;17.18;62.84;102890.97;5107149;27;45349;-88
2022/01/02 18:50:13;;;;;;;;;14.50;12.00;;;;;16.98;62.87;102857.28;5101173;27;47928;-86
2022/01/02 18:52:38;;;;;;;;;14.80;14.40;;;;;17.03;62.43;102856.03;5101468;27;45426;-88
2022/01/02 18:55:04;;;;;;;;;14.75;12.50;;;;;17.17;62.14;102861.50;5096566;27;45617;-86
2022/01/02 18:57:30;;;;;;;;;20.75;19.00;;;;;17.34;62.01;102880.13;5100524;27;45733;-87
2022/01/02 18:59:55;;;;;;;;;16.50;15.75;;;;;17.44;61.69;102884.94;5103550;27;46466;-87
2022/01/02 19:02:26;;;;;;;;;8.25;7.50;;;;;17.43;61.61;102869.78;5078503;27;45604;-88
2022/01/02 19:04:54;;;;;;;;;17.50;16.75;;;;;17.46;61.13;102872.28;5077520;27;45788;-87
2022/01/02 19:07:20;;;;;;;;;18.00;13.50;;;;;17.74;61.23;102907.22;5085298;27;45666;-86
2022/01/02 19:09:46;;;;;;;;;12.00;11.25;;;;;17.77;60.97;102912.41;5106242;27;48259;-86
2022/01/02 19:12:12;;;;;;;;;16.80;13.20;;;;;17.64;60.63;102869.38;5110277;27;45433;-87
2022/01/02 19:14:38;;;;;;;;;17.25;13.75;;;;;17.83;60.58;102895.03;5116367;27;45814;-87
2022/01/02 19:17:03;;;;;;;;;21.00;15.75;;;;;17.73;60.24;102884.88;5080323;27;45656;-86
2022/01/02 19:19:29;;;;;;;;;11.00;11.00;;;;;17.91;60.13;102909.69;5099057;27;45654;-86
2022/01/02 19:21:54;;;;;;;;;18.75;16.25;;;;;17.78;60.19;102876.56;5101755;27;45761;-86
2022/01/02 19:24:20;;;;;;;;;15.25;14.50;;;;;17.82;59.94;102887.94;5118386;27;45505;-86
2022/01/02 19:26:45;;;;;;;;;18.25;15.75;;;;;17.98;60.13;102910.19;5101700;27;45680;-85
2022/01/02 19:29:11;;;;;;;;;12.75;12.50;;;;;18.04;59.77;102918.78;5075047;27;47061;-86
2022/01/02 19:31:36;;;;;;;;;14.00;13.75;;;;;17.86;59.61;102873.38;5082650;27;46263;-86
2022/01/02 19:34:05;;;;;;;;;14.50;11.75;;;;;18.08;59.72;102915.78;5093414;27;45359;-86
2022/01/02 19:36:31;;;;;;;;;15.00;14.50;;;;;17.87;59.54;102883.16;5074458;27;45579;-86
2022/01/02 19:38:58;;;;;;;;;14.75;11.50;;;;;18.18;59.80;102910.69;5088105;27;45521;-87
2022/01/02 19:41:24;;;;;;;;;21.80;17.20;;;;;17.96;59.44;102870.94;5095589;27;45491;-87
2022/01/02 19:43:49;;;;;;;;;17.25;14.00;;;;;18.00;59.69;102886.75;5084657;27;45869;-88
2022/01/02 19:46:15;;;;;;;;;18.75;15.75;;;;;18.05;59.38;102888.28;5068208;27;45497;-87
2022/01/02 19:48:40;;;;;;;;;16.25;13.25;;;;;17.95;59.29;102859.34;5081069;27;45612;-87
2022/01/02 19:51:06;;;;;;;;;12.50;11.75;;;;;18.28;59.49;102918.16;5080240;27;45563;-88
2022/01/02 19:53:31;;;;;;;;;13.75;11.75;;;;;18.00;59.30;102865.28;5083331;27;45546;-86
2022/01/02 19:55:59;;;;;;;;;14.00;12.00;;;;;17.95;59.08;102856.66;5085743;27;45758;-86
2022/01/02 19:58:27;;;;;;;;;16.20;11.40;;;;;17.93;58.84;102847.00;5084641;27;47447;-87
2022/01/02 20:00:53;;;;;;;;;11.80;10.40;;;;;17.99;59.00;102847.44;5088179;27;46867;-88
2022/01/02 20:03:18;;;;;;;;;13.50;10.25;;;;;18.06;58.72;102872.06;5076019;27;45906;-87
2022/01/02 20:05:44;;;;;;;;;13.25;12.75;;;;;18.22;58.77;102895.25;5101118;27;50206;-87
2022/01/02 20:08:09;;;;;;;;;15.75;13.50;;;;;18.10;58.78;102872.75;5047874;28;48155;-87
2022/01/02 20:10:35;;;;;;;;;10.00;10.00;;;;;18.15;58.70;102888.53;5080902;27;45547;-87
2022/01/02 20:13:01;;;;;;;;;14.50;11.00;;;;;18.14;58.80;102898.41;5063456;27;45498;-87
2022/01/02 20:15:26;;;;;;;;;11.50;11.50;;;;;18.12;58.56;102892.28;5090054;27;46017;-87
2022/01/02 20:17:51;;;;;;;;;10.25;10.25;;;;;18.18;58.58;102904.47;5078652;27;46790;-88
2022/01/02 20:20:17;;;;;;;;;12.25;11.00;;;;;18.30;58.37;102918.94;5085886;27;45459;-88
2022/01/02 20:22:44;;;;;;;;;14.25;10.75;;;;;18.28;58.37;102899.34;5088104;27;45490;-86
2022/01/02 20:25:09;;;;;;;;;8.20;7.60;;;;;18.37;58.51;102898.75;5084212;27;45964;-87
2022/01/02 20:27:34;;;;;;;;;10.00;10.00;;;;;18.41;58.28;102900.28;5069084;27;45859;-87
2022/01/02 20:30:00;;;;;;;;;13.75;10.25;;;;;18.32;58.25;102900.88;5088403;27;46022;-88
2022/01/02 20:32:25;;;;;;;;;11.00;11.00;;;;;18.29;58.41;102911.84;5084372;27;45858;-88
2022/01/02 20:34:51;;;;;;;;;13.75;12.25;;;;;18.23;57.87;102897.84;5097867;27;45925;-88
2022/01/02 20:37:16;;;;;;;;;9.50;8.50;;;;;18.17;58.04;102871.34;5053128;27;50055;-88
2022/01/02 20:39:42;;;;;;;;;13.00;10.00;;;;;18.15;58.36;102867.06;5083437;27;45553;-88
2022/01/02 20:42:09;;;;;;;;;12.50;10.50;;;;;18.42;58.28;102907.38;5064517;27;45746;-87
2022/01/02 20:44:34;;;;;;;;;8.40;8.40;;;;;18.20;58.13;102876.53;5086199;27;45767;-88
2022/01/02 20:47:00;;;;;;;;;13.50;10.25;;;;;18.43;57.82;102914.47;5053125;27;47232;-88
2022/01/02 20:49:25;;;;;;;;;12.50;9.75;;;;;18.09;58.23;102849.50;5071477;27;46076;-85
2022/01/02 20:51:51;;;;;;;;;13.00;12.25;;;;;18.27;57.81;102884.22;5066214;27;45573;-85
2022/01/02 20:54:17;;;;;;;;;8.75;8.50;;;;;18.35;57.98;102900.69;5054968;27;45464;-86
2022/01/02 20:56:44;;;;;;;;;16.20;10.80;;;;;18.28;57.93;102905.59;5100087;27;45773;-86
2022/01/02 20:59:10;;;;;;;;;10.00;9.20;;;;;18.33;57.86;102905.31;5065759;27;45411;-86
2022/01/02 21:01:38;;;;;;;;;13.25;11.00;;;;;18.29;58.12;102895.72;5054834;28;47158;-86
2022/01/02 21:04:04;;;;;;;;;10.60;9.60;;;;;18.33;57.88;102922.28;5082729;27;45558;-86
2022/01/02 21:06:29;;;;;;;;;13.00;9.25;;;;;18.41;58.32;102931.66;5086571;27;46238;-86
2022/01/02 21:08:55;;;;;;;;;11.75;10.75;;;;;18.40;57.92;102946.94;5086135;27;45566;-86
2022/01/02 21:11:20;;;;;;;;;11.25;9.25;;;;;18.30;57.73;102932.38;5077997;27;45857;-86
2022/01/02 21:13:47;;;;;;;;;9.50;9.00;;;;;18.30;57.42;102916.25;5094004;27;45917;-86
2022/01/02 21:16:12;;;;;;;;;8.80;8.80;;;;;18.10;57.93;102843.19;5084053;27;47301;-86
2022/01/02 21:18:38;;;;;;;;;10.50;8.50;;;;;18.40;57.94;102892.31;5087768;27;45570;-88
2022/01/02 21:21:03;;;;;;;;;8.75;7.25;;;;;18.39;57.78;102929.06;5052965;27;45400;-88
2022/01/02 21:23:30;;;;;;;;;11.25;8.75;;;;;18.30;57.76;102930.53;5077344;27;45422;-87
2022/01/02 21:25:55;;;;;;;;;11.40;10.00;;;;;18.28;57.95;102936.97;5099327;27;45846;-86
2022/01/02 21:28:21;;;;;;;;;11.25;11.00;;;;;18.34;58.00;102952.69;5085640;27;45623;-87
2022/01/02 21:30:46;;;;;;;;;11.50;9.50;;;;;18.11;57.54;102893.25;5067364;27;45538;-87
2022/01/02 21:33:12;;;;;;;;;9.50;7.00;;;;;18.05;57.69;102872.16;5066038;27;45638;-87
2022/01/02 21:35:37;;;;;;;;;9.50;9.00;;;;;18.28;57.83;102912.78;5087331;27;46060;-88
2022/01/02 21:38:03;;;;;;;;;6.75;6.75;;;;;18.10;57.90;102875.41;5061561;27;48416;-87
2022/01/02 21:40:30;;;;;;;;;10.25;6.00;;;;;18.33;57.56;102891.88;5052622;27;45600;-87
2022/01/02 21:42:55;;;;;;;;;9.50;8.00;;;;;18.17;57.72;102865.97;5061798;27;46205;-88
2022/01/02 21:45:21;;;;;;;;;8.50;8.50;;;;;18.34;57.69;102889.06;5088653;27;45543;-88
2022/01/02 21:47:46;;;;;;;;;7.50;6.75;;;;;18.29;57.51;102861.66;5054921;27;45945;-88
2022/01/02 21:50:12;;;;;;;;;12.00;6.75;;;;;18.37;57.46;102873.69;5059724;27;45533;-88
2022/01/02 21:52:38;;;;;;;;;8.00;7.25;;;;;18.34;57.35;102881.00;5055273;27;45464;-88
2022/01/02 21:55:03;;;;;;;;;8.00;8.00;;;;;18.05;57.58;102839.91;5064796;28;51434;-88
2022/01/02 21:57:29;;;;;;;;;8.50;7.00;;;;;18.32;57.81;102879.41;5080415;27;45756;-88
2022/01/02 21:59:55;;;;;;;;;6.00;5.75;;;;;18.35;57.66;102879.19;5080853;27;45474;-88
2022/01/02 22:02:21;;;;;;;;;8.50;8.00;;;;;18.10;57.45;102843.19;5088158;27;45431;-87
2022/01/02 22:04:48;;;;;;;;;7.80;7.80;;;;;18.30;57.68;102865.22;5077618;27;47221;-87
2022/01/02 22:07:14;;;;;;;;;6.80;6.80;;;;;18.36;57.96;102880.91;5066578;28;45993;-86
2022/01/02 22:09:39;;;;;;;;;9.00;7.00;;;;;18.32;57.93;102876.72;5083906;27;45390;-87
2022/01/02 22:12:06;;;;;;;;;9.00;8.25;;;;;18.31;57.86;102861.53;5091430;27;45390;-87
2022/01/02 22:14:32;;;;;;;;;7.80;7.00;;;;;18.15;57.59;102818.69;5058904;27;45630;-86
2022/01/02 22:16:58;;;;;;;;;9.00;7.50;;;;;18.18;57.49;102814.00;5089611;27;46752;-87
2022/01/02 22:19:24;;;;;;;;;8.20;6.40;;;;;18.13;57.51;102805.34;5087737;27;45398;-86
2022/01/02 22:21:50;;;;;;;;;6.50;6.50;;;;;18.21;57.54;102824.56;5097630;27;45690;-88
2022/01/02 22:24:15;;;;;;;;;9.80;9.40;;;;;18.45;57.76;102853.41;5050452;27;47215;-87
2022/01/02 22:26:45;;;;;;;;;6.50;6.50;;;;;18.39;57.70;102843.06;5072061;27;46257;-88
2022/01/02 22:29:10;;;;;;;;;6.20;6.00;;;;;18.44;57.24;102851.72;5077223;27;45710;-90
2022/01/02 22:31:36;;;;;;;;;9.25;8.00;;;;;18.34;57.35;102839.84;5088890;27;45405;-88
2022/01/02 22:34:06;;;;;;;;;6.75;5.50;;;;;18.40;57.13;102854.69;5066775;27;46207;-87
2022/01/02 22:36:31;;;;;;;;;9.80;6.20;;;;;18.54;57.27;102869.88;5067854;28;45763;-88
2022/01/02 22:38:57;;;;;;;;;7.25;7.25;;;;;18.53;57.09;102876.25;5105699;27;45469;-87
2022/01/02 22:41:23;;;;;;;;;9.25;9.25;;;;;18.49;56.95;102855.91;5056330;27;45437;-87
2022/01/02 22:43:50;;;;;;;;;5.25;5.00;;;;;18.48;56.87;102848.78;5086331;27;45398;-88
2022/01/02 22:46:15;;;;;;;;;7.40;7.40;;;;;18.29;56.64;102817.78;5084743;27;45427;-87
2022/01/02 22:48:41;;;;;;;;;9.50;8.00;;;;;18.53;56.84;102860.13;5082732;27;45518;-88
2022/01/02 22:51:07;;;;;;;;;8.25;8.25;;;;;18.40;56.96;102836.75;5082400;27;45594;-88
2022/01/02 22:53:33;;;;;;;;;9.60;8.20;;;;;18.52;56.90;102858.38;5105968;27;46331;-87
2022/01/02 22:55:58;;;;;;;;;8.00;8.00;;;;;18.44;56.54;102851.72;5077033;27;45631;-87
2022/01/02 22:58:24;;;;;;;;;7.75;6.25;;;;;18.48;56.77;102852.34;5098141;27;45670;-88
2022/01/02 23:00:58;;;;;;;;;8.80;6.60;;;;;18.50;56.75;102849.56;5081768;27;45620;-87
2022/01/02 23:03:28;;;;;;;;;10.80;9.00;;;;;18.46;56.76;102838.16;5091034;27;46213;-87
2022/01/02 23:06:05;;;;;;;;;8.20;8.20;;;;;18.31;56.28;102831.97;5075967;27;45439;-87
2022/01/02 23:08:31;;;;;;;;;10.00;8.00;;;;;18.39;56.13;102848.44;5090733;27;45490;-88
2022/01/02 23:10:56;;;;;;;;;8.00;7.50;;;;;18.41;56.19;102841.16;5078275;27;45693;-87
2022/01/02 23:13:22;;;;;;;;;9.25;7.00;;;;;18.17;56.33;102793.44;5065582;28;46175;-89
2022/01/02 23:15:49;;;;;;;;;10.00;8.00;;;;;18.22;56.12;102796.72;5086404;27;45556;-87
2022/01/02 23:18:14;;;;;;;;;8.00;8.00;;;;;18.32;56.07;102825.66;5072229;28;45461;-87
2022/01/02 23:20:41;;;;;;;;;6.75;6.75;;;;;18.15;56.45;102798.06;5065145;27;45356;-87
2022/01/02 23:23:06;;;;;;;;;7.00;7.00;;;;;18.40;56.20;102833.19;5063458;28;47710;-88
2022/01/02 23:25:32;;;;;;;;;9.75;7.50;;;;;18.40;56.02;102850.19;5072170;27;45692;-87
2022/01/02 23:27:57;;;;;;;;;9.50;8.50;;;;;18.16;56.10;102805.16;5071711;27;45533;-87
2022/01/02 23:30:23;;;;;;;;;6.00;6.00;;;;;18.44;55.87;102849.03;5093699;27;45414;-88
2022/01/02 23:32:48;;;;;;;;;9.00;6.00;;;;;18.21;56.08;102807.53;5076895;27;47004;-87
2022/01/02 23:35:14;;;;;;;;;8.00;8.00;;;;;18.42;56.14;102850.06;5088740;27;46593;-87
2022/01/02 23:37:39;;;;;;;;;9.75;7.25;;;;;18.37;56.04;102861.13;5051927;27;45383;-87
2022/01/02 23:40:05;;;;;;;;;9.75;6.75;;;;;18.34;55.99;102839.84;5062806;28;45661;-88
2022/01/02 23:42:31;;;;;;;;;6.20;6.20;;;;;18.43;55.57;102843.72;5079605;27;48062;-87
2022/01/02 23:44:56;;;;;;;;;7.50;7.00;;;;;18.40;55.94;102839.44;5091070;27;45794;-87
2022/01/02 23:47:22;;;;;;;;;7.25;6.00;;;;;18.35;55.54;102829.00;5076760;27;45949;-87
2022/01/02 23:49:58;;;;;;;;;8.50;8.00;;;;;18.09;55.74;102783.22;5067930;27;45430;-88
2022/01/02 23:52:42;;;;;;;;;9.20;8.00;;;;;18.38;55.90;102817.19;5070176;27;47774;-88
2022/01/02 23:55:07;;;;;;;;;8.40;8.40;;;;;18.34;55.92;102813.84;5094641;27;45533;-87
2022/01/02 23:57:33;;;;;;;;;10.25;9.25;;;;;18.01;55.79;102759.56;5091037;27;45478;-87
2022/01/02 23:59:59;;;;;;;;;7.60;7.40;;;;;18.21;55.55;102803.06;5074505;27;45724;-87
